Time;durP1;ratioP1;P1;durP2;ratioP2;P2;SDS_P1;SDS_P2;PMS_P1;PMS_P2;Temp;Humidity;BMP_temperature;BMP_pressure;BME280_temperature;BME280_humidity;BME280_pressure;Samples;Min_cycle;Max_cycle;Signal;HPM_P1;HPM_P2
2021/04/06 00:01:40;;;;;;;17.70;2.33;;;;;;;;;;4980391;28;20133;-80
2021/04/06 00:04:09;;;;;;;15.98;2.47;;;;;;;;;;4963772;28;20129;-80
2021/04/06 00:06:38;;;;;;;13.52;2.33;;;;;;;;;;4964373;28;20118;-81
2021/04/06 00:09:10;;;;;;;16.83;1.73;;;;;;;;;;4978583;28;20057;-81
2021/04/06 00:11:39;;;;;;;20.23;2.53;;;;;;;;;;4966004;28;20700;-81
2021/04/06 00:14:06;;;;;;;12.30;1.50;;;;;;;;;;4967211;28;20077;-80
2021/04/06 00:16:33;;;;;;;18.17;2.50;;;;;;;;;;4961630;28;21924;-81
2021/04/06 00:19:02;;;;;;;16.95;2.25;;;;;;;;;;4961486;28;20062;-80
2021/04/06 00:21:29;;;;;;;13.00;2.20;;;;;;;;;;4966290;28;20074;-81
2021/04/06 00:23:57;;;;;;;11.27;1.80;;;;;;;;;;4963914;28;20101;-81
2021/04/06 00:26:24;;;;;;;20.05;2.47;;;;;;;;;;4982544;28;20149;-81
2021/04/06 00:28:51;;;;;;;17.80;2.05;;;;;;;;;;4967760;28;20074;-81
2021/04/06 00:31:21;;;;;;;19.45;2.60;;;;;;;;;;4983107;28;20093;-81
2021/04/06 00:33:49;;;;;;;20.55;2.30;;;;;;;;;;4965707;28;20073;-81
2021/04/06 00:36:29;;;;;;;18.38;1.77;;;;;;;;;;4965589;28;20074;-81
2021/04/06 00:38:56;;;;;;;26.50;2.40;;;;;;;;;;4958996;28;20073;-81
2021/04/06 00:41:23;;;;;;;14.85;1.98;;;;;;;;;;4975898;28;20046;-81
2021/04/06 00:43:51;;;;;;;25.70;3.25;;;;;;;;;;4964081;28;20066;-81
2021/04/06 00:46:22;;;;;;;24.98;3.65;;;;;;;;;;4973249;28;20105;-82
2021/04/06 00:48:49;;;;;;;28.20;2.33;;;;;;;;;;4969000;28;20472;-81
2021/04/06 00:51:18;;;;;;;22.77;2.50;;;;;;;;;;4973900;28;20050;-81
2021/04/06 00:54:02;;;;;;;22.33;2.60;;;;;;;;;;4982358;28;20445;-81
2021/04/06 00:56:33;;;;;;;15.57;2.22;;;;;;;;;;4970418;28;20051;-81
2021/04/06 00:59:01;;;;;;;22.08;2.20;;;;;;;;;;4965480;28;20598;-81
2021/04/06 01:01:29;;;;;;;24.23;2.83;;;;;;;;;;4964196;28;20076;-81
2021/04/06 01:03:59;;;;;;;16.65;2.30;;;;;;;;;;4980434;28;20085;-81
2021/04/06 01:06:26;;;;;;;13.07;2.10;;;;;;;;;;4964831;28;20074;-80
2021/04/06 01:08:53;;;;;;;22.00;2.35;;;;;;;;;;4981353;28;20470;-80
2021/04/06 01:11:22;;;;;;;17.98;2.60;;;;;;;;;;4963608;28;20072;-81
2021/04/06 01:13:59;;;;;;;15.43;2.60;;;;;;;;;;4965086;28;20137;-80
2021/04/06 01:16:27;;;;;;;20.38;2.38;;;;;;;;;;4972558;28;20074;-80
2021/04/06 01:18:54;;;;;;;15.07;2.72;;;;;;;;;;4982704;28;20089;-80
2021/04/06 01:21:22;;;;;;;26.35;2.33;;;;;;;;;;4981636;28;20107;-81
2021/04/06 01:23:48;;;;;;;24.73;2.78;;;;;;;;;;4979935;28;20165;-80
2021/04/06 01:26:15;;;;;;;18.48;3.05;;;;;;;;;;4965178;28;20138;-80
2021/04/06 01:28:44;;;;;;;19.35;2.65;;;;;;;;;;4964043;28;20128;-80
2021/04/06 01:31:11;;;;;;;20.13;2.35;;;;;;;;;;4981533;28;20529;-80
2021/04/06 01:33:38;;;;;;;12.43;2.40;;;;;;;;;;4962426;28;20390;-80
2021/04/06 01:36:10;;;;;;;18.00;2.55;;;;;;;;;;4961765;28;20172;-80
2021/04/06 01:38:40;;;;;;;11.73;2.25;;;;;;;;;;4966194;28;20202;-80
2021/04/06 01:41:07;;;;;;;24.13;2.65;;;;;;;;;;4960305;28;20507;-80
2021/04/06 01:43:35;;;;;;;10.50;2.40;;;;;;;;;;4959748;28;20050;-80
2021/04/06 01:46:14;;;;;;;9.93;2.40;;;;;;;;;;4974506;28;20487;-81
2021/04/06 01:48:41;;;;;;;17.58;2.38;;;;;;;;;;4969812;28;20079;-80
2021/04/06 01:51:08;;;;;;;18.92;2.85;;;;;;;;;;4956792;28;20559;-80
2021/04/06 01:53:36;;;;;;;12.95;2.38;;;;;;;;;;4958842;28;20046;-79
2021/04/06 01:56:09;;;;;;;22.25;2.47;;;;;;;;;;4963391;28;20043;-80
2021/04/06 01:58:38;;;;;;;17.48;2.60;;;;;;;;;;4961604;28;20050;-81
2021/04/06 02:01:13;;;;;;;13.90;2.22;;;;;;;;;;4968975;28;20085;-80
2021/04/06 02:03:48;;;;;;;11.60;2.33;;;;;;;;;;4976296;28;20454;-80
2021/04/06 02:06:15;;;;;;;13.20;2.42;;;;;;;;;;4972596;28;20133;-80
2021/04/06 02:08:52;;;;;;;18.08;2.60;;;;;;;;;;4967489;28;20471;-80
2021/04/06 02:11:22;;;;;;;26.13;3.20;;;;;;;;;;4969989;28;20070;-80
2021/04/06 02:13:50;;;;;;;13.25;2.33;;;;;;;;;;4966571;28;20531;-80
2021/04/06 02:16:17;;;;;;;18.98;2.13;;;;;;;;;;4981208;28;20058;-80
2021/04/06 02:18:44;;;;;;;7.25;2.13;;;;;;;;;;4983032;28;20042;-80
2021/04/06 02:21:10;;;;;;;11.65;2.05;;;;;;;;;;4966499;28;20124;-80
2021/04/06 02:23:41;;;;;;;13.60;2.38;;;;;;;;;;4980462;28;21544;-80
2021/04/06 02:26:09;;;;;;;23.52;3.30;;;;;;;;;;4978243;28;20054;-80
2021/04/06 02:28:40;;;;;;;11.60;2.30;;;;;;;;;;4979606;28;20050;-80
2021/04/06 02:31:07;;;;;;;11.85;2.67;;;;;;;;;;4970636;28;20133;-81
2021/04/06 02:33:35;;;;;;;20.27;2.85;;;;;;;;;;4968472;28;20574;-80
2021/04/06 02:36:07;;;;;;;15.38;2.90;;;;;;;;;;4971382;28;20049;-80
2021/04/06 02:38:42;;;;;;;15.25;3.05;;;;;;;;;;4968373;28;20082;-81
2021/04/06 02:41:18;;;;;;;14.60;3.30;;;;;;;;;;4968351;28;21090;-80
2021/04/06 02:43:52;;;;;;;10.43;2.72;;;;;;;;;;4964929;28;20800;-81
2021/04/06 02:46:23;;;;;;;15.80;2.65;;;;;;;;;;4963724;28;20511;-80
2021/04/06 02:48:50;;;;;;;23.02;3.80;;;;;;;;;;4981088;28;20150;-80
2021/04/06 02:51:17;;;;;;;20.90;2.95;;;;;;;;;;4968150;28;20462;-80
2021/04/06 02:53:47;;;;;;;21.48;3.55;;;;;;;;;;4971242;28;20553;-80
2021/04/06 02:56:28;;;;;;;13.02;3.25;;;;;;;;;;4982858;28;20108;-80
2021/04/06 02:58:55;;;;;;;17.73;2.58;;;;;;;;;;4980024;28;20551;-81
2021/04/06 03:01:22;;;;;;;14.88;3.15;;;;;;;;;;4962192;28;20141;-81
2021/04/06 03:03:48;;;;;;;13.68;2.47;;;;;;;;;;4978878;28;20057;-80
2021/04/06 03:06:15;;;;;;;20.23;2.60;;;;;;;;;;4979788;28;20151;-81
2021/04/06 03:08:42;;;;;;;22.00;3.13;;;;;;;;;;4965306;28;20053;-81
2021/04/06 03:11:10;;;;;;;18.23;2.70;;;;;;;;;;4981858;28;20165;-81
2021/04/06 03:13:41;;;;;;;16.92;3.20;;;;;;;;;;4967494;28;20580;-81
2021/04/06 03:16:09;;;;;;;13.85;2.67;;;;;;;;;;4964591;28;20140;-81
2021/04/06 03:18:40;;;;;;;20.13;3.10;;;;;;;;;;4970411;28;20105;-81
2021/04/06 03:21:08;;;;;;;12.07;3.08;;;;;;;;;;4967320;28;20746;-81
2021/04/06 03:23:38;;;;;;;16.83;3.47;;;;;;;;;;4966026;28;20160;-81
2021/04/06 03:26:06;;;;;;;15.13;3.72;;;;;;;;;;4980471;28;20078;-81
2021/04/06 03:28:35;;;;;;;10.88;2.53;;;;;;;;;;4965353;28;20122;-81
2021/04/06 03:31:09;;;;;;;15.30;3.40;;;;;;;;;;4966291;28;20468;-81
2021/04/06 03:33:39;;;;;;;19.08;2.90;;;;;;;;;;4963939;28;20140;-80
2021/04/06 03:36:07;;;;;;;12.50;3.10;;;;;;;;;;4963751;28;20882;-80
2021/04/06 03:38:35;;;;;;;12.10;3.00;;;;;;;;;;4963530;28;20141;-80
2021/04/06 03:41:02;;;;;;;15.32;2.97;;;;;;;;;;4979882;28;20077;-80
2021/04/06 03:43:39;;;;;;;24.58;3.85;;;;;;;;;;4966430;28;20096;-80
2021/04/06 03:46:06;;;;;;;16.17;3.92;;;;;;;;;;4967061;28;20089;-80
2021/04/06 03:48:34;;;;;;;14.35;3.10;;;;;;;;;;4981760;28;20689;-81
2021/04/06 03:51:01;;;;;;;22.67;3.63;;;;;;;;;;4980201;28;20050;-80
2021/04/06 03:53:38;;;;;;;20.15;3.90;;;;;;;;;;4985673;28;20169;-80
2021/04/06 03:56:07;;;;;;;13.57;3.20;;;;;;;;;;4967496;28;20145;-80
2021/04/06 03:58:44;;;;;;;14.27;3.97;;;;;;;;;;4984297;28;20046;-79
2021/04/06 04:01:14;;;;;;;14.70;3.78;;;;;;;;;;4986204;28;20138;-80
2021/04/06 04:03:42;;;;;;;12.90;3.40;;;;;;;;;;4987463;28;20100;-80
2021/04/06 04:06:09;;;;;;;16.70;3.67;;;;;;;;;;4984581;28;20157;-80
2021/04/06 04:08:35;;;;;;;19.58;4.55;;;;;;;;;;4972624;28;20117;-80
2021/04/06 04:11:02;;;;;;;18.17;4.32;;;;;;;;;;4972572;28;20077;-79
2021/04/06 04:13:29;;;;;;;15.98;3.97;;;;;;;;;;4972902;28;20636;-79
2021/04/06 04:15:56;;;;;;;23.95;5.38;;;;;;;;;;4970855;28;20137;-79
2021/04/06 04:18:22;;;;;;;13.52;4.88;;;;;;;;;;4971052;28;20077;-81
2021/04/06 04:20:49;;;;;;;18.23;4.95;;;;;;;;;;4968640;28;20228;-81
2021/04/06 04:23:17;;;;;;;18.40;5.60;;;;;;;;;;4970628;28;20138;-82
2021/04/06 04:25:44;;;;;;;11.68;4.43;;;;;;;;;;4986805;28;20050;-81
2021/04/06 04:28:10;;;;;;;16.85;4.80;;;;;;;;;;4971027;28;20142;-81
2021/04/06 04:30:41;;;;;;;17.17;5.05;;;;;;;;;;4969625;28;20414;-83
2021/04/06 04:33:09;;;;;;;13.73;5.53;;;;;;;;;;4970353;28;20479;-81
2021/04/06 04:35:51;;;;;;;12.13;5.05;;;;;;;;;;4973036;28;20128;-81
2021/04/06 04:38:18;;;;;;;21.27;5.53;;;;;;;;;;4971106;28;20153;-79
2021/04/06 04:40:45;;;;;;;26.63;5.97;;;;;;;;;;4983766;28;20125;-78
2021/04/06 04:43:12;;;;;;;22.75;6.47;;;;;;;;;;4979453;28;20046;-79
2021/04/06 04:45:39;;;;;;;12.75;5.32;;;;;;;;;;4966476;28;20254;-79
2021/04/06 04:48:06;;;;;;;11.48;5.22;;;;;;;;;;4983021;28;20101;-79
2021/04/06 04:50:33;;;;;;;24.55;5.95;;;;;;;;;;4967471;28;20132;-79
2021/04/06 04:53:00;;;;;;;19.67;6.15;;;;;;;;;;4969011;28;20255;-81
2021/04/06 04:55:27;;;;;;;17.45;6.25;;;;;;;;;;4985300;28;20149;-80
2021/04/06 04:57:54;;;;;;;26.48;6.68;;;;;;;;;;4984054;28;20193;-81
2021/04/06 05:00:22;;;;;;;21.83;6.38;;;;;;;;;;4967761;28;20470;-84
2021/04/06 05:02:48;;;;;;;21.00;7.40;;;;;;;;;;4982252;28;20058;-82
2021/04/06 05:05:16;;;;;;;25.25;7.20;;;;;;;;;;4967323;28;20058;-82
2021/04/06 05:07:51;;;;;;;14.85;6.43;;;;;;;;;;4967109;28;20113;-79
2021/04/06 05:10:18;;;;;;;19.02;6.25;;;;;;;;;;4965962;28;20578;-82
2021/04/06 05:12:47;;;;;;;19.15;6.40;;;;;;;;;;4966973;28;20078;-83
2021/04/06 05:15:17;;;;;;;23.40;7.78;;;;;;;;;;4966969;28;20074;-83
2021/04/06 05:17:44;;;;;;;20.52;7.65;;;;;;;;;;4982016;28;20121;-82
2021/04/06 05:20:11;;;;;;;23.73;7.10;;;;;;;;;;4981953;28;20138;-79
2021/04/06 05:22:38;;;;;;;25.08;6.90;;;;;;;;;;4966925;28;20136;-79
2021/04/06 05:25:06;;;;;;;21.13;6.35;;;;;;;;;;4981164;28;20058;-78
2021/04/06 05:27:33;;;;;;;23.20;6.70;;;;;;;;;;4965290;28;20050;-80
2021/04/06 05:29:59;;;;;;;22.80;7.05;;;;;;;;;;4986673;28;20454;-87
2021/04/06 05:32:27;;;;;;;23.02;7.18;;;;;;;;;;4965770;28;20133;-81
2021/04/06 05:34:54;;;;;;;24.73;7.15;;;;;;;;;;4979980;28;20543;-84
2021/04/06 05:37:21;;;;;;;16.10;6.68;;;;;;;;;;4966227;28;20069;-83
2021/04/06 05:39:49;;;;;;;16.27;6.80;;;;;;;;;;4966390;28;20112;-84
2021/04/06 05:42:16;;;;;;;24.30;7.22;;;;;;;;;;4965025;28;20075;-82
2021/04/06 05:44:43;;;;;;;22.33;7.53;;;;;;;;;;4982321;28;20042;-81
2021/04/06 05:47:23;;;;;;;31.42;6.40;;;;;;;;;;4968578;28;20172;-81
2021/04/06 05:49:50;;;;;;;15.75;6.53;;;;;;;;;;4981003;28;20073;-80
2021/04/06 05:52:17;;;;;;;23.17;5.35;;;;;;;;;;4964956;28;20509;-80
2021/04/06 05:54:47;;;;;;;32.90;6.50;;;;;;;;;;4965637;28;20049;-81
2021/04/06 05:57:14;;;;;;;20.23;5.72;;;;;;;;;;4966348;28;20082;-81
2021/04/06 05:59:42;;;;;;;30.55;6.40;;;;;;;;;;4984309;28;20046;-81
2021/04/06 06:02:15;;;;;;;22.35;5.53;;;;;;;;;;4982117;28;20058;-81
2021/04/06 06:04:45;;;;;;;14.63;5.15;;;;;;;;;;4967598;28;20042;-81
2021/04/06 06:07:15;;;;;;;23.27;6.40;;;;;;;;;;4965887;28;20078;-82
2021/04/06 06:09:46;;;;;;;24.50;5.13;;;;;;;;;;4966227;28;20058;-81
2021/04/06 06:12:14;;;;;;;21.95;4.60;;;;;;;;;;4966945;28;20054;-81
2021/04/06 06:14:43;;;;;;;16.50;5.53;;;;;;;;;;4965537;28;20050;-82
2021/04/06 06:17:26;;;;;;;40.63;6.40;;;;;;;;;;4967252;28;20133;-81
2021/04/06 06:19:54;;;;;;;24.98;5.43;;;;;;;;;;4982385;28;20075;-80
2021/04/06 06:22:24;;;;;;;31.45;5.68;;;;;;;;;;4967181;28;20085;-82
2021/04/06 06:25:01;;;;;;;25.30;4.72;;;;;;;;;;4967742;28;20484;-81
2021/04/06 06:27:35;;;;;;;24.40;5.05;;;;;;;;;;4983784;28;20125;-82
2021/04/06 06:30:36;;;;;;;20.42;5.13;;;;;;;;;;4964141;28;20125;-82
2021/04/06 06:33:19;;;;;;;20.10;5.13;;;;;;;;;;4955020;28;20046;-82
2021/04/06 06:36:04;;;;;;;20.55;4.68;;;;;;;;;;4959358;28;20058;-84
2021/04/06 06:38:49;;;;;;;20.85;4.20;;;;;;;;;;4967361;28;20654;-81
2021/04/06 06:41:20;;;;;;;13.88;4.00;;;;;;;;;;4968863;28;20534;-81
2021/04/06 06:43:52;;;;;;;23.00;4.72;;;;;;;;;;4967922;28;20050;-81
2021/04/06 06:46:20;;;;;;;16.45;3.40;;;;;;;;;;4967742;28;20120;-83
2021/04/06 06:48:55;;;;;;;12.80;3.33;;;;;;;;;;4968174;28;20637;-82
2021/04/06 06:51:34;;;;;;;15.23;3.80;;;;;;;;;;4967505;28;20046;-80
2021/04/06 06:54:01;;;;;;;16.83;4.55;;;;;;;;;;4965404;28;20145;-83
2021/04/06 06:56:43;;;;;;;17.65;3.05;;;;;;;;;;4964920;28;20673;-84
2021/04/06 06:59:10;;;;;;;18.98;5.00;;;;;;;;;;4964095;28;21450;-83
2021/04/06 07:01:37;;;;;;;25.02;4.55;;;;;;;;;;4977040;28;20573;-82
2021/04/06 07:04:05;;;;;;;19.23;3.65;;;;;;;;;;4961956;28;20055;-84
2021/04/06 07:06:33;;;;;;;19.50;3.88;;;;;;;;;;4985015;28;20104;-84
2021/04/06 07:09:02;;;;;;;14.57;3.25;;;;;;;;;;4972031;28;20436;-92
2021/04/06 07:11:31;;;;;;;18.70;3.80;;;;;;;;;;4986610;28;20046;-86
2021/04/06 07:13:58;;;;;;;15.85;3.50;;;;;;;;;;4967290;28;20093;-84
2021/04/06 07:16:25;;;;;;;24.52;3.55;;;;;;;;;;4967682;28;20050;-85
2021/04/06 07:18:52;;;;;;;24.00;4.10;;;;;;;;;;4969145;28;20054;-85
2021/04/06 07:21:20;;;;;;;17.20;3.47;;;;;;;;;;4964551;28;20062;-84
2021/04/06 07:23:54;;;;;;;15.70;3.47;;;;;;;;;;4965076;28;20129;-85
2021/04/06 07:26:22;;;;;;;22.10;3.88;;;;;;;;;;4967132;28;20122;-85
2021/04/06 07:28:51;;;;;;;16.45;3.30;;;;;;;;;;4984204;28;20372;-87
2021/04/06 07:31:18;;;;;;;14.30;2.80;;;;;;;;;;4968464;28;20043;-86
2021/04/06 07:33:52;;;;;;;16.15;3.20;;;;;;;;;;4968251;28;20049;-87
2021/04/06 07:36:20;;;;;;;13.75;2.60;;;;;;;;;;4968732;28;20117;-86
2021/04/06 07:38:49;;;;;;;21.42;3.50;;;;;;;;;;4966597;28;20096;-86
2021/04/06 07:41:21;;;;;;;17.73;2.72;;;;;;;;;;4965391;28;20120;-84
2021/04/06 07:43:52;;;;;;;16.33;3.10;;;;;;;;;;4983139;28;20129;-86
2021/04/06 07:46:35;;;;;;;18.10;3.33;;;;;;;;;;4966112;28;20093;-82
2021/04/06 07:49:07;;;;;;;20.17;3.35;;;;;;;;;;4970056;28;20077;-84
2021/04/06 07:51:48;;;;;;;25.17;5.35;;;;;;;;;;4967418;28;20581;-84
2021/04/06 07:54:18;;;;;;;22.17;7.13;;;;;;;;;;4965144;28;20046;-83
2021/04/06 07:56:49;;;;;;;12.70;3.05;;;;;;;;;;4967249;28;20129;-82
2021/04/06 07:59:20;;;;;;;18.05;3.95;;;;;;;;;;4967216;28;20046;-81
2021/04/06 08:01:57;;;;;;;19.02;4.18;;;;;;;;;;4984903;28;20050;-82
2021/04/06 08:04:39;;;;;;;12.27;3.30;;;;;;;;;;4966590;28;20051;-84
2021/04/06 08:07:25;;;;;;;18.30;4.30;;;;;;;;;;4969049;28;20054;-84
2021/04/06 08:09:54;;;;;;;11.07;3.17;;;;;;;;;;4984698;28;20133;-84
2021/04/06 08:12:49;;;;;;;18.15;4.32;;;;;;;;;;4959500;28;20066;-83
2021/04/06 08:15:21;;;;;;;49.65;7.68;;;;;;;;;;4964915;28;20150;-82
2021/04/06 08:17:54;;;;;;;26.35;3.47;;;;;;;;;;4965013;28;20047;-84
2021/04/06 08:20:22;;;;;;;25.63;3.60;;;;;;;;;;4967417;28;20554;-81
2021/04/06 08:23:10;;;;;;;17.38;3.67;;;;;;;;;;4985020;28;20082;-84
2021/04/06 08:25:38;;;;;;;11.90;3.70;;;;;;;;;;4967225;28;20120;-85
2021/04/06 08:28:05;;;;;;;11.48;2.70;;;;;;;;;;4967740;28;20622;-79
2021/04/06 08:30:37;;;;;;;11.77;2.47;;;;;;;;;;4964794;28;20138;-79
2021/04/06 08:33:07;;;;;;;10.90;2.75;;;;;;;;;;4968627;28;20050;-79
2021/04/06 08:35:49;;;;;;;10.50;1.98;;;;;;;;;;4964694;28;20073;-78
2021/04/06 08:38:22;;;;;;;16.08;2.28;;;;;;;;;;4966735;28;20054;-79
2021/04/06 08:40:52;;;;;;;11.43;2.13;;;;;;;;;;4969063;28;20572;-79
2021/04/06 08:43:35;;;;;;;13.85;2.22;;;;;;;;;;4965430;28;20046;-79
2021/04/06 08:46:08;;;;;;;11.35;2.58;;;;;;;;;;4965476;28;20053;-79
2021/04/06 08:48:44;;;;;;;16.25;2.30;;;;;;;;;;4967912;28;20046;-80
2021/04/06 08:51:26;;;;;;;13.85;2.17;;;;;;;;;;4983730;28;20081;-78
2021/04/06 08:53:56;;;;;;;16.85;2.10;;;;;;;;;;4971982;28;20487;-83
2021/04/06 08:56:25;;;;;;;10.30;2.40;;;;;;;;;;4967773;28;20054;-83
2021/04/06 08:58:52;;;;;;;21.10;4.93;;;;;;;;;;4989060;28;20062;-82
2021/04/06 09:01:22;;;;;;;13.40;2.15;;;;;;;;;;4987723;28;20534;-83
2021/04/06 09:03:51;;;;;;;10.40;2.30;;;;;;;;;;4986656;28;20046;-83
2021/04/06 09:06:19;;;;;;;12.68;1.98;;;;;;;;;;4972087;28;20050;-83
2021/04/06 09:08:47;;;;;;;16.00;3.05;;;;;;;;;;4970258;28;20069;-82
2021/04/06 09:11:15;;;;;;;18.40;2.33;;;;;;;;;;4988456;28;20546;-83
2021/04/06 09:13:47;;;;;;;13.98;2.33;;;;;;;;;;4972716;28;20061;-82
2021/04/06 09:16:14;;;;;;;7.82;1.30;;;;;;;;;;4971709;28;20063;-83
2021/04/06 09:18:42;;;;;;;14.32;2.00;;;;;;;;;;4971550;28;20085;-82
2021/04/06 09:21:11;;;;;;;16.15;2.25;;;;;;;;;;4973037;28;20042;-82
2021/04/06 09:23:42;;;;;;;8.20;2.63;;;;;;;;;;4967619;28;20050;-82
2021/04/06 09:26:13;;;;;;;21.88;3.05;;;;;;;;;;4974065;28;20053;-82
2021/04/06 09:28:40;;;;;;;12.48;2.38;;;;;;;;;;4976663;28;20054;-81
2021/04/06 09:31:08;;;;;;;9.73;2.10;;;;;;;;;;4987632;28;20140;-80
2021/04/06 09:33:37;;;;;;;15.70;2.08;;;;;;;;;;4968946;28;20054;-80
2021/04/06 09:36:11;;;;;;;7.97;2.17;;;;;;;;;;4969943;28;20101;-80
2021/04/06 09:38:42;;;;;;;14.43;2.38;;;;;;;;;;4969061;28;20058;-78
2021/04/06 09:41:11;;;;;;;13.90;2.10;;;;;;;;;;4986261;28;20046;-76
2021/04/06 09:43:38;;;;;;;14.00;2.28;;;;;;;;;;4983516;28;20136;-77
2021/04/06 09:46:07;;;;;;;12.82;2.42;;;;;;;;;;4966038;28;20061;-77
2021/04/06 09:48:34;;;;;;;17.15;2.45;;;;;;;;;;4969860;28;21180;-81
2021/04/06 09:51:07;;;;;;;10.15;2.60;;;;;;;;;;4983839;28;20152;-80
2021/04/06 09:53:37;;;;;;;8.77;2.17;;;;;;;;;;4984594;28;20070;-81
2021/04/06 09:56:05;;;;;;;12.48;1.90;;;;;;;;;;4984855;28;20057;-81
2021/04/06 09:58:34;;;;;;;9.15;2.25;;;;;;;;;;4985560;28;20598;-81
2021/04/06 10:01:01;;;;;;;5.75;1.98;;;;;;;;;;4987798;28;20050;-82
2021/04/06 10:03:28;;;;;;;10.75;2.15;;;;;;;;;;4988247;28;20046;-82
2021/04/06 10:06:08;;;;;;;15.68;2.25;;;;;;;;;;4987024;28;20074;-82
2021/04/06 10:08:35;;;;;;;10.32;2.22;;;;;;;;;;4970311;28;20495;-82
2021/04/06 10:11:02;;;;;;;5.80;1.92;;;;;;;;;;4972141;28;20157;-82
2021/04/06 10:13:36;;;;;;;6.88;2.03;;;;;;;;;;4987474;28;20105;-82
2021/04/06 10:16:16;;;;;;;9.38;2.40;;;;;;;;;;4972632;28;20042;-81
2021/04/06 10:18:44;;;;;;;13.20;1.95;;;;;;;;;;4973289;28;20046;-79
2021/04/06 10:21:29;;;;;;;5.35;1.65;;;;;;;;;;4987832;28;20054;-79
2021/04/06 10:24:06;;;;;;;4.88;1.45;;;;;;;;;;4987226;28;20575;-80
2021/04/06 10:26:33;;;;;;;7.32;1.73;;;;;;;;;;4972272;28;20050;-79
2021/04/06 10:29:08;;;;;;;7.45;1.67;;;;;;;;;;4971944;28;20116;-80
2021/04/06 10:32:00;;;;;;;4.87;1.70;;;;;;;;;;4987296;28;20515;-80
2021/04/06 10:34:30;;;;;;;16.00;1.77;;;;;;;;;;4972734;28;20336;-80
2021/04/06 10:37:08;;;;;;;4.25;1.60;;;;;;;;;;4987621;28;20104;-80
2021/04/06 10:39:41;;;;;;;10.95;2.05;;;;;;;;;;4971807;28;20058;-80
2021/04/06 10:42:13;;;;;;;8.35;1.42;;;;;;;;;;4987255;28;20070;-81
2021/04/06 10:44:42;;;;;;;7.43;1.38;;;;;;;;;;4985737;28;20066;-81
2021/04/06 10:47:25;;;;;;;9.73;1.73;;;;;;;;;;4987607;28;20373;-81
2021/04/06 10:50:00;;;;;;;8.80;1.50;;;;;;;;;;4985734;28;20443;-80
2021/04/06 10:52:32;;;;;;;8.77;1.50;;;;;;;;;;4974183;28;20074;-81
2021/04/06 10:55:07;;;;;;;7.85;1.15;;;;;;;;;;4987499;28;20491;-81
2021/04/06 10:57:38;;;;;;;8.40;2.25;;;;;;;;;;4983508;28;20056;-83
2021/04/06 11:00:16;;;;;;;70.65;2.78;;;;;;;;;;4968479;28;20503;-80
2021/04/06 11:02:44;;;;;;;12.05;1.23;;;;;;;;;;4972950;28;20046;-81
2021/04/06 11:05:12;;;;;;;6.53;1.50;;;;;;;;;;4969979;28;20047;-83
2021/04/06 11:07:39;;;;;;;8.65;1.20;;;;;;;;;;4967714;28;20394;-84
2021/04/06 11:10:07;;;;;;;5.65;1.13;;;;;;;;;;4985755;28;20050;-83
2021/04/06 11:12:34;;;;;;;8.93;0.93;;;;;;;;;;4984600;28;20699;-82
2021/04/06 11:15:01;;;;;;;3.42;0.80;;;;;;;;;;4967610;28;20046;-82
2021/04/06 11:17:28;;;;;;;3.30;0.90;;;;;;;;;;4985191;28;20463;-81
2021/04/06 11:19:56;;;;;;;2.40;0.60;;;;;;;;;;4983260;28;20049;-82
2021/04/06 11:22:30;;;;;;;3.50;0.75;;;;;;;;;;4983718;28;20462;-82
2021/04/06 11:24:57;;;;;;;1.00;0.60;;;;;;;;;;4969819;28;20045;-83
2021/04/06 11:27:24;;;;;;;0.80;0.60;;;;;;;;;;4982004;28;20456;-83
2021/04/06 11:29:51;;;;;;;5.78;0.75;;;;;;;;;;4964584;28;20046;-84
2021/04/06 11:32:19;;;;;;;3.72;0.70;;;;;;;;;;4980378;28;20058;-83
2021/04/06 11:34:46;;;;;;;2.05;0.60;;;;;;;;;;4982936;28;20062;-83
2021/04/06 11:37:13;;;;;;;2.53;1.00;;;;;;;;;;4984907;28;20209;-83
2021/04/06 11:39:41;;;;;;;2.25;0.98;;;;;;;;;;4964380;28;20121;-83
2021/04/06 11:42:09;;;;;;;5.90;0.90;;;;;;;;;;4980406;28;20073;-84
2021/04/06 11:44:36;;;;;;;4.00;1.30;;;;;;;;;;4962333;28;20046;-81
2021/04/06 11:47:03;;;;;;;7.55;1.15;;;;;;;;;;4965500;28;20137;-81
2021/04/06 11:49:31;;;;;;;4.07;0.85;;;;;;;;;;4982233;28;20045;-81
2021/04/06 11:51:58;;;;;;;5.85;1.30;;;;;;;;;;4966293;28;20093;-83
2021/04/06 11:54:25;;;;;;;3.97;0.90;;;;;;;;;;4963506;28;20109;-84
2021/04/06 11:56:52;;;;;;;6.60;1.27;;;;;;;;;;4965437;28;20086;-83
2021/04/06 11:59:19;;;;;;;5.57;1.10;;;;;;;;;;4969506;28;20144;-83
2021/04/06 12:01:46;;;;;;;3.00;1.02;;;;;;;;;;4983392;28;20169;-82
2021/04/06 12:04:16;;;;;;;3.72;1.05;;;;;;;;;;4985980;28;20479;-82
2021/04/06 12:06:43;;;;;;;4.32;1.02;;;;;;;;;;4984958;28;20741;-82
2021/04/06 12:09:15;;;;;;;4.72;0.80;;;;;;;;;;4969205;28;20101;-82
2021/04/06 12:11:42;;;;;;;3.85;0.77;;;;;;;;;;4983972;28;20488;-82
2021/04/06 12:14:09;;;;;;;6.45;0.95;;;;;;;;;;4971809;28;20043;-82
2021/04/06 12:16:36;;;;;;;4.30;0.47;;;;;;;;;;4970697;28;20058;-81
2021/04/06 12:19:03;;;;;;;4.88;0.93;;;;;;;;;;4972266;28;20058;-82
2021/04/06 12:21:30;;;;;;;5.22;0.68;;;;;;;;;;4972439;28;20117;-81
2021/04/06 12:23:57;;;;;;;1.85;0.73;;;;;;;;;;4971161;28;20074;-82
2021/04/06 12:26:24;;;;;;;3.80;1.02;;;;;;;;;;4987227;28;20108;-81
2021/04/06 12:28:51;;;;;;;2.88;1.02;;;;;;;;;;4972056;28;20144;-82
2021/04/06 12:31:17;;;;;;;2.75;0.82;;;;;;;;;;4971577;28;20633;-81
2021/04/06 12:33:47;;;;;;;2.88;0.73;;;;;;;;;;4971756;28;20121;-81
2021/04/06 12:36:14;;;;;;;2.03;0.70;;;;;;;;;;4986397;28;20078;-81
2021/04/06 12:38:42;;;;;;;8.23;1.25;;;;;;;;;;4986904;28;20157;-81
2021/04/06 12:41:09;;;;;;;4.65;0.80;;;;;;;;;;4968957;28;20039;-81
2021/04/06 12:43:36;;;;;;;1.13;0.55;;;;;;;;;;4984588;28;20073;-81
2021/04/06 12:46:04;;;;;;;4.13;1.30;;;;;;;;;;4969572;28;20048;-81
2021/04/06 12:48:31;;;;;;;1.77;0.52;;;;;;;;;;4970473;28;20137;-82
2021/04/06 12:50:58;;;;;;;8.38;0.85;;;;;;;;;;4987150;28;20554;-81
2021/04/06 12:53:24;;;;;;;7.40;0.82;;;;;;;;;;4986003;28;20054;-82
2021/04/06 12:55:52;;;;;;;7.97;1.05;;;;;;;;;;4987444;28;20069;-82
2021/04/06 12:58:18;;;;;;;3.63;0.80;;;;;;;;;;4969731;28;20129;-81
2021/04/06 13:00:46;;;;;;;3.80;0.82;;;;;;;;;;4984802;28;20141;-81
2021/04/06 13:03:14;;;;;;;5.82;0.93;;;;;;;;;;4969625;28;20097;-82
2021/04/06 13:05:40;;;;;;;4.10;1.15;;;;;;;;;;4967667;28;20044;-82
2021/04/06 13:08:11;;;;;;;9.18;1.25;;;;;;;;;;4969660;28;20719;-81
2021/04/06 13:10:39;;;;;;;3.88;1.15;;;;;;;;;;4970602;28;20078;-82
2021/04/06 13:13:12;;;;;;;6.70;1.38;;;;;;;;;;4968993;28;20050;-82
2021/04/06 13:15:40;;;;;;;5.90;1.17;;;;;;;;;;4970272;28;20052;-82
2021/04/06 13:18:09;;;;;;;3.83;1.23;;;;;;;;;;4970399;28;20403;-81
2021/04/06 13:20:36;;;;;;;2.70;0.88;;;;;;;;;;4984098;28;20065;-81
2021/04/06 13:23:03;;;;;;;6.05;1.20;;;;;;;;;;4986463;28;20133;-81
2021/04/06 13:25:30;;;;;;;2.45;0.88;;;;;;;;;;4969436;28;20045;-81
2021/04/06 13:27:57;;;;;;;7.90;0.82;;;;;;;;;;4984513;28;20050;-81
2021/04/06 13:30:24;;;;;;;3.97;0.80;;;;;;;;;;4969740;28;20074;-81
2021/04/06 13:32:51;;;;;;;6.63;1.00;;;;;;;;;;4982998;28;20086;-81
2021/04/06 13:35:20;;;;;;;3.88;0.70;;;;;;;;;;4983951;28;20142;-82
2021/04/06 13:37:47;;;;;;;3.58;0.77;;;;;;;;;;4969470;28;20069;-81
2021/04/06 13:40:15;;;;;;;2.92;1.17;;;;;;;;;;4967680;28;20766;-81
2021/04/06 13:42:42;;;;;;;2.65;0.50;;;;;;;;;;4971191;28;20053;-81
2021/04/06 13:45:11;;;;;;;5.47;0.75;;;;;;;;;;4989392;28;20097;-81
2021/04/06 13:47:57;;;;;;;5.55;0.82;;;;;;;;;;4988994;28;20117;-81
2021/04/06 13:50:23;;;;;;;9.98;1.00;;;;;;;;;;4970985;28;20149;-80
2021/04/06 13:52:50;;;;;;;4.05;0.73;;;;;;;;;;4970995;28;20151;-80
2021/04/06 13:55:19;;;;;;;5.80;0.73;;;;;;;;;;4971072;28;20057;-80
2021/04/06 13:57:45;;;;;;;7.25;0.80;;;;;;;;;;4988252;28;20050;-81
2021/04/06 14:00:16;;;;;;;2.60;0.73;;;;;;;;;;4988253;28;20050;-80
2021/04/06 14:02:44;;;;;;;4.63;0.90;;;;;;;;;;4971187;28;20121;-80
2021/04/06 14:05:12;;;;;;;3.72;1.00;;;;;;;;;;4971438;28;20047;-80
2021/04/06 14:07:41;;;;;;;4.32;0.90;;;;;;;;;;4987474;28;20054;-81
2021/04/06 14:10:10;;;;;;;12.55;1.42;;;;;;;;;;4987202;28;20047;-81
2021/04/06 14:12:37;;;;;;;4.47;1.23;;;;;;;;;;4986758;28;20133;-81
2021/04/06 14:15:05;;;;;;;8.32;0.80;;;;;;;;;;4987967;28;20810;-81
2021/04/06 14:17:31;;;;;;;4.60;0.80;;;;;;;;;;4969636;28;20133;-81
2021/04/06 14:19:58;;;;;;;5.78;0.88;;;;;;;;;;4987961;28;20050;-81
2021/04/06 14:22:25;;;;;;;5.63;0.82;;;;;;;;;;4970903;28;20124;-82
2021/04/06 14:24:52;;;;;;;9.65;1.10;;;;;;;;;;4987919;28;20144;-81
2021/04/06 14:27:20;;;;;;;8.90;2.03;;;;;;;;;;4988182;28;20084;-81
2021/04/06 14:29:46;;;;;;;5.70;1.05;;;;;;;;;;4984143;28;20138;-81
2021/04/06 14:32:16;;;;;;;3.25;1.15;;;;;;;;;;4970217;28;20058;-79
2021/04/06 14:34:44;;;;;;;6.28;1.25;;;;;;;;;;4968533;28;20129;-81
2021/04/06 14:37:12;;;;;;;8.02;1.20;;;;;;;;;;4968787;28;20753;-80
2021/04/06 14:39:38;;;;;;;4.75;1.23;;;;;;;;;;4984158;28;20050;-81
2021/04/06 14:42:06;;;;;;;2.25;0.77;;;;;;;;;;4983768;28;20161;-81
2021/04/06 14:44:34;;;;;;;2.67;0.70;;;;;;;;;;4969481;28;20113;-81
2021/04/06 14:47:01;;;;;;;9.48;1.33;;;;;;;;;;4968573;28;20100;-81
2021/04/06 14:49:28;;;;;;;6.25;1.10;;;;;;;;;;4987241;28;20056;-81